www.srh.weather.gov   
NOAA logo - Click to go to the NOAA homepage   NWS logo
Terminal Aerodrome Forecast
Enter Your "City, ST" or zip code   
Current Version              Previous Version:    01  02  03  04  05  06  07  08  09  10  11  12  13  14  15  16  17  18  19  20  21  22  23  24  25  26  27  28  29  30  
   31  32  33  34  35  36  37  38  39  40  41  42  43  44  45  46  47  48  49  50  51  52  53  54  55  56  57  58  59  60  
[Printable]
917
FTUS42 KJAX 011900 AAA
TAFGNV
TAF AMD
KGNV 011908Z 0119/0218 12008KT P6SM VCTS SCT040CB BKN250
      TEMPO 0120/0124 VRB15G28KT 2SM TSRA BR OVC025CB
     FM020000 15005KT P6SM FEW040 BKN250
     FM020300 VRB03KT P6SM SCT250
     FM021300 23003KT P6SM SCT030=

National Weather Service
Disclaimer
Last Modified: August 31, 2005
Privacy Policy